METAR

TAF

 




Rio de Janeiro / Galeão - Antonio Carlos Jobim, RJ - SBGL


25 de Julho de 2014 às 13:00 (UTC)


Tempo:

Céu parcialmente nublado

Temperatura:

22ºC

Umidade Relativa:

73%

Localização:
Ajuste do Altímetro:

1017 hPa

Visibilidade Horizontal Predominante:

> 10 Km

Direção e Velocidade do Vento:

200° 27,78 Km/h


Observação Meteorológica:

METAR SBGL 251300Z 20015KT 9999 SCT017 BKN070 22/17 Q1017=